Time;durP1;ratioP1;P1;durP2;ratioP2;P2;SDS_P1;SDS_P2;PMS_P1;PMS_P2;Temp;Humidity;BMP_temperature;BMP_pressure;BME280_temperature;BME280_humidity;BME280_pressure;Samples;Min_cycle;Max_cycle;Signal;HPM_P1;HPM_P2
2023/03/21 00:01:15;;;;;;;4.97;4.55;;;11.20;99.90;;;;;;5030723;28;20230;-79
2023/03/21 00:03:45;;;;;;;5.43;4.90;;;11.20;99.90;;;;;;5030469;28;20282;-79
2023/03/21 00:06:14;;;;;;;5.63;5.07;;;11.20;99.90;;;;;;5030604;28;20214;-79
2023/03/21 00:08:43;;;;;;;4.50;4.20;;;11.20;99.90;;;;;;5030341;28;20210;-79
2023/03/21 00:11:13;;;;;;;10.35;4.97;;;11.20;99.90;;;;;;5030569;28;20256;-79
2023/03/21 00:13:42;;;;;;;6.53;5.25;;;11.20;99.90;;;;;;5030850;28;20246;-79
2023/03/21 00:16:14;;;;;;;6.10;5.30;;;11.10;99.90;;;;;;5030943;28;20317;-79
2023/03/21 00:18:57;;;;;;;5.28;4.88;;;11.20;99.90;;;;;;5029894;28;20318;-79
2023/03/21 00:21:32;;;;;;;18.10;5.70;;;11.10;99.90;;;;;;5030298;28;20230;-79
2023/03/21 00:24:21;;;;;;;4.70;4.30;;;11.20;99.90;;;;;;5030378;28;20207;-79
2023/03/21 00:26:50;;;;;;;5.28;4.85;;;11.10;99.90;;;;;;5029748;28;20210;-79
2023/03/21 00:29:19;;;;;;;4.85;4.40;;;11.10;99.90;;;;;;5030075;28;20225;-79
2023/03/21 00:31:47;;;;;;;5.43;5.00;;;11.10;99.90;;;;;;5030015;28;20308;-79
2023/03/21 00:34:17;;;;;;;5.95;5.20;;;11.20;99.90;;;;;;5030345;28;20202;-79
2023/03/21 00:37:00;;;;;;;7.28;5.63;;;11.10;99.90;;;;;;5030097;28;20297;-79
2023/03/21 00:39:28;;;;;;;6.57;5.97;;;11.20;99.90;;;;;;5030012;28;20234;-80
2023/03/21 00:41:57;;;;;;;5.43;5.03;;;11.20;99.90;;;;;;5030283;28;20304;-79
2023/03/21 00:44:25;;;;;;;6.82;5.65;;;11.20;99.90;;;;;;5030337;28;20263;-79
2023/03/21 00:46:53;;;;;;;5.90;5.30;;;11.20;99.90;;;;;;5030119;28;20302;-80
2023/03/21 00:49:37;;;;;;;6.28;5.68;;;11.20;99.90;;;;;;5031710;28;20210;-79
2023/03/21 00:52:07;;;;;;;6.43;5.72;;;11.20;99.90;;;;;;5034298;28;20279;-79
2023/03/21 00:54:49;;;;;;;6.13;5.53;;;11.20;99.90;;;;;;5034033;28;20210;-79
2023/03/21 00:57:18;;;;;;;5.38;4.88;;;11.20;99.90;;;;;;5034277;28;20230;-79
2023/03/21 00:59:49;;;;;;;5.45;4.95;;;11.20;99.90;;;;;;5035721;28;20242;-79
2023/03/21 01:02:21;;;;;;;6.43;5.47;;;11.30;99.90;;;;;;5036002;28;20217;-80
2023/03/21 01:04:52;;;;;;;5.07;4.68;;;11.20;99.90;;;;;;5036159;28;20213;-80
2023/03/21 01:07:20;;;;;;;6.10;5.20;;;11.30;99.90;;;;;;5035641;28;20210;-80
2023/03/21 01:09:49;;;;;;;7.22;5.22;;;11.30;99.90;;;;;;5035893;28;20219;-79
2023/03/21 01:12:18;;;;;;;5.38;4.85;;;11.30;99.90;;;;;;5036326;28;20207;-79
2023/03/21 01:14:46;;;;;;;5.18;4.72;;;11.30;99.90;;;;;;5035592;28;20225;-80
2023/03/21 01:17:14;;;;;;;4.28;3.90;;;11.30;99.90;;;;;;5035755;28;20219;-79
2023/03/21 01:19:43;;;;;;;5.30;4.80;;;11.30;99.90;;;;;;5035651;28;20249;-80
2023/03/21 01:22:21;;;;;;;5.45;4.97;;;11.30;99.90;;;;;;5035546;28;20305;-80
2023/03/21 01:24:49;;;;;;;3.95;3.55;;;11.30;99.90;;;;;;5035607;28;20207;-79
2023/03/21 01:27:25;;;;;;;4.32;3.97;;;11.30;99.90;;;;;;5035042;28;20209;-80
2023/03/21 01:29:53;;;;;;;6.00;3.67;;;11.40;99.90;;;;;;5035397;28;20289;-80
2023/03/21 01:32:22;;;;;;;3.47;3.17;;;11.40;99.90;;;;;;5035546;28;20229;-80
2023/03/21 01:34:50;;;;;;;3.00;2.80;;;11.50;99.90;;;;;;5035557;28;20241;-80
2023/03/21 01:37:20;;;;;;;2.70;2.50;;;11.50;99.90;;;;;;5034914;28;20264;-79
2023/03/21 01:39:48;;;;;;;2.70;2.50;;;11.50;99.90;;;;;;5035098;28;20321;-79
2023/03/21 01:42:17;;;;;;;2.15;2.05;;;11.50;99.90;;;;;;5035625;28;20346;-79
2023/03/21 01:44:56;;;;;;;2.80;2.60;;;11.40;99.90;;;;;;5035695;28;20310;-80
2023/03/21 01:47:25;;;;;;;3.55;2.63;;;11.40;99.90;;;;;;5035029;28;20267;-80
2023/03/21 01:49:57;;;;;;;2.83;2.63;;;11.40;99.90;;;;;;5035387;28;20304;-80
2023/03/21 01:52:29;;;;;;;2.55;2.35;;;11.40;99.90;;;;;;5035638;28;20240;-80
2023/03/21 01:55:10;;;;;;;2.15;1.98;;;11.40;99.90;;;;;;5035804;28;20198;-79
2023/03/21 01:57:43;;;;;;;3.60;2.85;;;11.40;99.90;;;;;;5034801;28;20214;-79
2023/03/21 02:00:28;;;;;;;3.42;3.03;;;11.40;99.90;;;;;;5034188;28;20223;-79
2023/03/21 02:02:58;;;;;;;2.92;2.72;;;11.40;99.90;;;;;;5035283;28;20293;-80
2023/03/21 02:05:49;;;;;;;2.33;2.13;;;11.40;99.90;;;;;;5034886;28;20206;-80
2023/03/21 02:08:19;;;;;;;3.13;2.80;;;11.40;99.90;;;;;;5034583;28;20234;-79
2023/03/21 02:10:51;;;;;;;2.83;2.63;;;11.40;99.90;;;;;;5034979;28;20227;-79
2023/03/21 02:13:20;;;;;;;2.63;2.53;;;11.30;99.90;;;;;;5034496;28;20237;-80
2023/03/21 02:15:59;;;;;;;2.38;2.20;;;11.30;99.90;;;;;;5034755;28;20206;-79
2023/03/21 02:18:35;;;;;;;3.67;3.38;;;11.30;99.90;;;;;;5034397;28;20297;-79
2023/03/21 02:21:45;;;;;;;2.92;2.67;;;11.40;99.90;;;;;;5034302;28;20238;-79
2023/03/21 02:24:43;;;;;;;2.30;2.20;;;11.40;99.90;;;;;;5034642;28;20245;-79
2023/03/21 02:27:20;;;;;;;3.22;2.88;;;11.30;99.90;;;;;;5033551;28;20272;-79
2023/03/21 02:30:14;;;;;;;4.57;2.90;;;11.30;99.90;;;;;;5034244;28;20241;-79
2023/03/21 02:33:19;;;;;;;2.95;2.72;;;11.40;99.90;;;;;;5034420;28;20213;-80
2023/03/21 02:36:03;;;;;;;4.22;3.55;;;11.30;99.90;;;;;;5034814;28;20213;-80
2023/03/21 02:38:53;;;;;;;2.70;2.50;;;11.40;99.90;;;;;;5034317;28;20211;-79
2023/03/21 02:41:32;;;;;;;2.97;2.78;;;11.30;99.90;;;;;;5034061;28;20307;-79
2023/03/21 02:44:14;;;;;;;4.25;3.13;;;11.30;99.90;;;;;;5033969;28;20206;-79
2023/03/21 02:46:49;;;;;;;3.50;3.20;;;11.30;99.90;;;;;;5034183;28;20244;-79
2023/03/21 02:49:40;;;;;;;4.00;3.35;;;11.30;99.90;;;;;;5034172;28;20244;-79
2023/03/21 02:52:12;;;;;;;3.00;2.78;;;11.30;99.90;;;;;;5034005;28;20202;-79
2023/03/21 02:54:50;;;;;;;3.00;2.80;;;11.30;99.90;;;;;;5033816;28;20206;-80
2023/03/21 02:57:20;;;;;;;2.90;2.70;;;11.20;99.90;;;;;;5033905;28;20207;-79
2023/03/21 02:59:51;;;;;;;3.05;2.85;;;11.20;99.90;;;;;;5033966;28;20226;-79
2023/03/21 03:02:29;;;;;;;3.38;3.08;;;11.20;99.90;;;;;;5034626;28;20198;-79
2023/03/21 03:04:59;;;;;;;2.78;2.55;;;11.20;99.90;;;;;;5033638;28;20268;-79
2023/03/21 03:07:39;;;;;;;3.85;3.50;;;11.10;99.90;;;;;;5033435;28;20213;-79
2023/03/21 03:10:31;;;;;;;3.50;3.20;;;11.10;99.90;;;;;;5033835;28;20306;-79
2023/03/21 03:13:13;;;;;;;3.83;3.40;;;11.00;99.90;;;;;;5032552;28;20218;-79
2023/03/21 03:15:48;;;;;;;3.88;3.25;;;11.00;99.90;;;;;;5033712;28;20369;-79
2023/03/21 03:18:26;;;;;;;3.15;2.92;;;11.00;99.90;;;;;;5033023;28;20206;-79
2023/03/21 03:21:04;;;;;;;3.80;3.50;;;10.90;99.90;;;;;;5033311;28;20253;-79
2023/03/21 03:23:37;;;;;;;2.90;2.70;;;10.90;99.90;;;;;;5033535;28;20216;-79
2023/03/21 03:26:12;;;;;;;3.95;3.38;;;10.80;99.90;;;;;;5033316;28;20264;-79
2023/03/21 03:28:46;;;;;;;4.00;3.58;;;10.80;99.90;;;;;;5032555;28;20268;-78
2023/03/21 03:31:20;;;;;;;3.67;3.38;;;10.80;99.90;;;;;;5032745;28;20222;-79
2023/03/21 03:33:52;;;;;;;4.05;3.58;;;10.70;99.90;;;;;;5033276;28;20378;-79
2023/03/21 03:36:23;;;;;;;5.80;3.75;;;10.70;99.90;;;;;;5032987;28;20213;-79
2023/03/21 03:39:04;;;;;;;6.50;4.50;;;10.70;99.90;;;;;;5032948;28;20218;-79
2023/03/21 03:41:38;;;;;;;4.40;4.05;;;10.70;99.90;;;;;;5033105;28;20296;-79
2023/03/21 03:44:27;;;;;;;4.60;4.20;;;10.60;99.90;;;;;;5032965;28;20206;-79
2023/03/21 03:47:01;;;;;;;10.65;3.88;;;10.60;99.90;;;;;;5032661;28;20207;-79
2023/03/21 03:49:33;;;;;;;5.20;4.70;;;10.60;99.90;;;;;;5032783;28;20278;-79
2023/03/21 03:52:08;;;;;;;5.13;4.07;;;10.60;99.90;;;;;;5032835;28;20205;-79
2023/03/21 03:54:39;;;;;;;4.05;3.75;;;10.70;99.90;;;;;;5032969;28;20249;-79
2023/03/21 03:57:11;;;;;;;5.18;4.68;;;10.70;99.90;;;;;;5032069;28;20253;-80
2023/03/21 03:59:41;;;;;;;4.28;3.83;;;10.70;99.90;;;;;;5032496;28;20229;-80
2023/03/21 04:02:09;;;;;;;5.03;4.53;;;10.70;99.90;;;;;;5032535;28;20322;-79
2023/03/21 04:04:38;;;;;;;4.30;4.00;;;10.60;99.90;;;;;;5032877;28;20233;-79
2023/03/21 04:07:06;;;;;;;4.72;4.30;;;10.60;99.90;;;;;;5032601;28;20206;-79
2023/03/21 04:09:35;;;;;;;4.78;4.38;;;10.60;99.90;;;;;;5032639;28;20206;-79
2023/03/21 04:12:13;;;;;;;5.47;4.97;;;10.60;99.90;;;;;;5032658;28;20225;-79
2023/03/21 04:14:42;;;;;;;5.03;4.50;;;10.60;99.90;;;;;;5032806;28;20237;-80
2023/03/21 04:17:14;;;;;;;4.45;4.03;;;10.50;99.90;;;;;;5032083;28;20317;-79
2023/03/21 04:19:44;;;;;;;4.13;3.80;;;10.50;99.90;;;;;;5033132;28;20225;-80
2023/03/21 04:22:13;;;;;;;4.15;3.85;;;10.50;99.90;;;;;;5032213;28;20229;-80
2023/03/21 04:24:41;;;;;;;4.63;4.22;;;10.50;99.90;;;;;;5034377;28;20210;-79
2023/03/21 04:27:10;;;;;;;4.53;4.07;;;10.40;99.90;;;;;;5036213;28;20210;-78
2023/03/21 04:29:40;;;;;;;4.72;4.32;;;10.40;99.90;;;;;;5036134;28;20224;-79
2023/03/21 04:32:15;;;;;;;5.18;4.78;;;10.30;99.90;;;;;;5036499;28;20206;-80
2023/03/21 04:34:48;;;;;;;3.70;3.47;;;10.30;99.90;;;;;;5036516;28;20256;-80
2023/03/21 04:37:18;;;;;;;6.00;3.92;;;10.30;99.90;;;;;;5036380;28;20206;-80
2023/03/21 04:39:46;;;;;;;4.10;3.70;;;10.30;99.90;;;;;;5036576;28;20241;-80
2023/03/21 04:42:17;;;;;;;4.28;3.97;;;10.20;99.90;;;;;;5036202;28;20308;-80
2023/03/21 04:44:47;;;;;;;4.38;3.97;;;10.20;99.90;;;;;;5036486;28;20214;-79
2023/03/21 04:47:19;;;;;;;5.15;4.65;;;10.20;99.90;;;;;;5035728;28;20258;-80
2023/03/21 04:49:48;;;;;;;5.45;4.47;;;10.20;99.90;;;;;;5035956;28;20332;-80
2023/03/21 04:52:16;;;;;;;4.00;3.70;;;10.10;99.90;;;;;;5035899;28;20241;-80
2023/03/21 04:54:45;;;;;;;3.80;3.50;;;10.10;99.90;;;;;;5036155;28;20253;-80
2023/03/21 04:57:13;;;;;;;4.60;4.20;;;10.00;99.90;;;;;;5035241;28;20270;-79
2023/03/21 04:59:42;;;;;;;3.88;3.58;;;10.00;99.90;;;;;;5035856;28;20265;-80
2023/03/21 05:02:12;;;;;;;4.13;3.83;;;10.00;99.90;;;;;;5035685;28;20222;-79
2023/03/21 05:04:41;;;;;;;4.50;4.10;;;10.00;99.90;;;;;;5036094;28;20294;-79
2023/03/21 05:07:09;;;;;;;4.47;4.10;;;10.00;99.90;;;;;;5035737;28;20212;-79
2023/03/21 05:09:37;;;;;;;5.47;4.97;;;9.90;99.90;;;;;;5035789;28;20249;-80
2023/03/21 05:12:06;;;;;;;7.53;4.45;;;9.90;99.90;;;;;;5035959;28;20230;-80
2023/03/21 05:14:34;;;;;;;4.20;3.90;;;9.90;99.90;;;;;;5035934;28;20206;-79
2023/03/21 05:17:04;;;;;;;5.78;5.20;;;9.80;99.90;;;;;;5035405;28;20264;-80
2023/03/21 05:19:39;;;;;;;4.38;3.97;;;9.80;99.90;;;;;;5035750;28;20272;-80
2023/03/21 05:22:10;;;;;;;4.78;4.38;;;9.80;99.90;;;;;;5035698;28;20218;-80
2023/03/21 05:24:40;;;;;;;4.22;3.83;;;9.80;99.90;;;;;;5036117;28;20214;-79
2023/03/21 05:27:09;;;;;;;4.22;3.85;;;9.90;99.90;;;;;;5035346;28;20206;-79
2023/03/21 05:29:37;;;;;;;4.22;3.67;;;9.90;99.90;;;;;;5035399;28;20210;-79
2023/03/21 05:32:06;;;;;;;3.97;3.67;;;10.00;99.90;;;;;;5035390;28;20237;-80
2023/03/21 05:34:35;;;;;;;4.20;3.80;;;10.00;99.90;;;;;;5035396;28;20301;-79
2023/03/21 05:37:04;;;;;;;6.60;4.68;;;10.00;99.90;;;;;;5034170;28;20245;-79
2023/03/21 05:39:32;;;;;;;5.60;5.03;;;10.10;99.90;;;;;;5034208;28;20206;-79
2023/03/21 05:42:00;;;;;;;5.30;4.85;;;10.10;99.90;;;;;;5035173;28;20313;-79
2023/03/21 05:44:29;;;;;;;4.43;4.10;;;10.10;99.90;;;;;;5035103;28;20210;-79
2023/03/21 05:46:57;;;;;;;4.38;3.97;;;10.10;99.90;;;;;;5034768;28;20211;-79
2023/03/21 05:49:25;;;;;;;5.97;4.90;;;10.10;99.90;;;;;;5035517;28;20289;-80
2023/03/21 05:51:55;;;;;;;4.75;4.35;;;10.10;99.90;;;;;;5035330;28;20310;-80
2023/03/21 05:54:24;;;;;;;5.15;4.65;;;10.10;99.90;;;;;;5035102;28;20237;-80
2023/03/21 05:56:52;;;;;;;5.07;4.68;;;10.10;99.90;;;;;;5034837;28;20227;-80
2023/03/21 05:59:20;;;;;;;5.88;5.35;;;10.10;99.90;;;;;;5034988;28;20202;-79
2023/03/21 06:01:49;;;;;;;4.50;4.20;;;10.20;99.90;;;;;;5035220;28;20265;-79
2023/03/21 06:04:17;;;;;;;4.53;4.13;;;10.20;99.90;;;;;;5035406;28;20203;-80
2023/03/21 06:06:49;;;;;;;5.65;5.05;;;10.30;99.90;;;;;;5034395;28;20245;-85
2023/03/21 06:09:19;;;;;;;4.35;3.95;;;10.30;99.90;;;;;;5035016;28;20229;-85
2023/03/21 06:11:49;;;;;;;6.68;5.47;;;10.40;99.90;;;;;;5034627;28;20305;-85
2023/03/21 06:14:18;;;;;;;5.47;4.97;;;10.50;99.90;;;;;;5034515;28;20245;-85
2023/03/21 06:16:46;;;;;;;5.28;4.80;;;10.50;99.90;;;;;;5034610;28;20218;-84
2023/03/21 06:19:15;;;;;;;9.48;6.22;;;10.60;99.90;;;;;;5034809;28;20209;-84
2023/03/21 06:21:43;;;;;;;8.18;5.20;;;10.60;99.90;;;;;;5034683;28;20254;-84
2023/03/21 06:24:12;;;;;;;5.07;4.45;;;10.60;99.90;;;;;;5034396;28;20234;-84
2023/03/21 06:26:42;;;;;;;4.70;4.30;;;10.60;99.90;;;;;;5034139;28;20297;-79
2023/03/21 06:29:11;;;;;;;5.53;5.03;;;10.60;99.90;;;;;;5034500;28;20293;-79
2023/03/21 06:31:42;;;;;;;14.40;5.22;;;10.60;99.90;;;;;;5034382;28;20258;-85
2023/03/21 06:34:11;;;;;;;5.03;4.50;;;10.60;99.90;;;;;;5034323;28;20211;-84
2023/03/21 06:36:39;;;;;;;5.45;4.47;;;10.60;99.90;;;;;;5034530;28;20289;-85
2023/03/21 06:39:09;;;;;;;4.78;4.38;;;10.70;99.90;;;;;;5032846;28;20214;-84
2023/03/21 06:41:37;;;;;;;4.75;4.35;;;10.60;99.90;;;;;;5034324;28;20268;-84
2023/03/21 06:44:07;;;;;;;8.30;5.68;;;10.70;99.90;;;;;;5034356;28;20238;-84
2023/03/21 06:46:36;;;;;;;4.65;4.22;;;10.70;99.90;;;;;;5033829;28;20207;-85
2023/03/21 06:49:04;;;;;;;6.18;5.15;;;10.80;99.90;;;;;;5033447;28;20210;-84
2023/03/21 06:51:32;;;;;;;4.50;4.10;;;10.80;99.90;;;;;;5033658;28;20325;-85
2023/03/21 06:54:01;;;;;;;4.45;4.05;;;10.90;99.90;;;;;;5034256;28;20260;-84
2023/03/21 06:56:29;;;;;;;4.97;4.57;;;10.90;99.90;;;;;;5033850;28;20301;-85
2023/03/21 06:58:57;;;;;;;4.60;4.20;;;11.00;99.90;;;;;;5033452;28;20214;-85
2023/03/21 07:01:29;;;;;;;4.50;4.10;;;11.00;99.90;;;;;;5033525;28;20282;-84
2023/03/21 07:03:58;;;;;;;8.27;4.47;;;11.10;99.90;;;;;;5034195;28;20230;-85
2023/03/21 07:06:27;;;;;;;4.40;4.03;;;11.20;99.90;;;;;;5033955;28;20272;-85
2023/03/21 07:08:56;;;;;;;4.57;4.07;;;11.20;99.90;;;;;;5035579;28;20262;-84
2023/03/21 07:11:25;;;;;;;10.25;4.07;;;11.30;99.90;;;;;;5033767;28;20226;-84
2023/03/21 07:13:54;;;;;;;5.25;3.95;;;11.40;99.90;;;;;;5033849;28;20222;-84
2023/03/21 07:16:23;;;;;;;4.25;3.88;;;11.40;99.90;;;;;;5033273;28;20202;-84
2023/03/21 07:18:53;;;;;;;3.88;3.58;;;11.50;99.90;;;;;;5033494;28;20206;-84
2023/03/21 07:21:22;;;;;;;6.82;3.97;;;11.50;99.90;;;;;;5033812;28;20246;-85
2023/03/21 07:23:50;;;;;;;4.53;4.13;;;11.60;99.90;;;;;;5033336;28;20286;-85
2023/03/21 07:26:18;;;;;;;4.75;3.70;;;11.60;99.90;;;;;;5033231;28;20298;-85
2023/03/21 07:28:47;;;;;;;4.03;3.55;;;11.60;99.90;;;;;;5032284;28;20253;-85
2023/03/21 07:31:18;;;;;;;3.42;3.20;;;11.70;99.90;;;;;;5032912;28;20227;-85
2023/03/21 07:33:46;;;;;;;3.20;3.00;;;11.80;99.90;;;;;;5033382;28;20202;-85
2023/03/21 07:36:16;;;;;;;3.78;3.40;;;11.90;99.90;;;;;;5033642;28;20244;-85
2023/03/21 07:38:46;;;;;;;4.10;3.70;;;11.90;99.90;;;;;;5032452;28;20210;-85
2023/03/21 07:41:14;;;;;;;4.22;3.30;;;12.00;99.90;;;;;;5033072;28;20314;-86
2023/03/21 07:43:43;;;;;;;3.55;3.10;;;12.10;99.90;;;;;;5033121;28;20226;-86
2023/03/21 07:46:11;;;;;;;3.67;3.40;;;12.10;99.90;;;;;;5033209;28;20234;-86
2023/03/21 07:48:40;;;;;;;4.40;3.97;;;12.20;99.90;;;;;;5032640;28;20214;-86
2023/03/21 07:51:08;;;;;;;3.03;2.83;;;12.30;99.90;;;;;;5033184;28;20222;-86
2023/03/21 07:53:40;;;;;;;4.43;3.03;;;12.30;99.90;;;;;;5032675;28;20207;-86
2023/03/21 07:56:09;;;;;;;2.97;2.78;;;12.40;99.90;;;;;;5032832;28;20232;-86
2023/03/21 07:58:38;;;;;;;3.15;2.95;;;12.50;99.90;;;;;;5032267;28;20261;-86
2023/03/21 08:01:06;;;;;;;4.07;3.67;;;12.60;99.90;;;;;;5032972;28;20226;-85
2023/03/21 08:03:34;;;;;;;4.38;4.00;;;12.70;99.90;;;;;;5032634;28;20290;-85
2023/03/21 08:06:03;;;;;;;3.05;2.75;;;12.80;99.90;;;;;;5032872;28;20220;-85
2023/03/21 08:08:32;;;;;;;3.35;3.05;;;12.80;99.90;;;;;;5032198;28;20233;-85
2023/03/21 08:11:03;;;;;;;3.28;2.97;;;12.90;99.90;;;;;;5032900;28;20325;-85
2023/03/21 08:13:32;;;;;;;3.70;3.40;;;13.00;99.90;;;;;;5033088;28;20203;-85
2023/03/21 08:16:00;;;;;;;3.13;2.92;;;13.10;99.90;;;;;;5032719;28;20198;-85
2023/03/21 08:18:29;;;;;;;3.65;3.35;;;13.10;99.90;;;;;;5032386;28;20210;-85
2023/03/21 08:20:58;;;;;;;3.38;3.08;;;13.20;99.90;;;;;;5032375;28;20236;-86
2023/03/21 08:23:26;;;;;;;3.85;3.50;;;13.40;99.90;;;;;;5032226;28;20229;-79
2023/03/21 08:25:55;;;;;;;3.80;3.50;;;13.50;99.90;;;;;;5032593;28;20213;-79
2023/03/21 08:28:25;;;;;;;5.38;3.13;;;13.60;99.90;;;;;;5031919;28;20245;-80
2023/03/21 08:30:53;;;;;;;3.05;2.85;;;13.80;99.90;;;;;;5032247;28;20319;-80
2023/03/21 08:33:22;;;;;;;4.10;3.38;;;14.00;99.90;;;;;;5032495;28;20210;-79
2023/03/21 08:35:50;;;;;;;4.90;4.50;;;14.20;99.90;;;;;;5032334;28;20257;-79
2023/03/21 08:38:18;;;;;;;3.65;3.35;;;14.50;99.90;;;;;;5031772;28;20217;-79
2023/03/21 08:40:46;;;;;;;4.07;3.72;;;14.80;99.90;;;;;;5031042;28;20218;-79
2023/03/21 08:43:16;;;;;;;4.63;3.15;;;14.80;99.90;;;;;;5031852;28;20222;-79
2023/03/21 08:45:46;;;;;;;4.25;3.85;;;14.90;99.90;;;;;;5032521;28;20301;-79
2023/03/21 08:48:14;;;;;;;4.95;3.50;;;14.90;99.90;;;;;;5031762;28;20256;-79
2023/03/21 08:50:44;;;;;;;3.92;3.63;;;14.90;99.90;;;;;;5032095;28;20233;-79
2023/03/21 08:53:14;;;;;;;4.35;3.92;;;14.90;99.90;;;;;;5032465;28;20236;-79
2023/03/21 08:55:44;;;;;;;3.95;3.55;;;14.80;99.90;;;;;;5032412;28;20213;-79
2023/03/21 08:58:12;;;;;;;3.83;3.53;;;15.00;99.90;;;;;;5031558;28;20261;-79
2023/03/21 09:00:40;;;;;;;4.60;4.03;;;15.00;99.90;;;;;;5031912;28;20241;-79
2023/03/21 09:03:10;;;;;;;4.20;3.90;;;15.00;99.90;;;;;;5032020;28;20206;-79
2023/03/21 09:05:38;;;;;;;4.10;3.70;;;15.00;99.90;;;;;;5032125;28;20222;-79
2023/03/21 09:08:07;;;;;;;4.70;4.30;;;15.00;99.90;;;;;;5032136;28;20214;-78
2023/03/21 09:10:35;;;;;;;4.13;3.72;;;14.80;99.90;;;;;;5033671;28;20314;-78
2023/03/21 09:13:03;;;;;;;4.22;3.83;;;14.80;99.90;;;;;;5035577;28;20294;-79
2023/03/21 09:15:34;;;;;;;5.18;4.28;;;14.90;99.90;;;;;;5035815;28;20271;-78
2023/03/21 09:18:12;;;;;;;3.90;3.60;;;15.10;99.90;;;;;;5035470;28;20237;-79
2023/03/21 09:20:43;;;;;;;4.07;3.65;;;15.10;99.90;;;;;;5035347;28;20268;-79
2023/03/21 09:23:13;;;;;;;3.90;3.45;;;15.10;99.90;;;;;;5035611;28;20217;-79
2023/03/21 09:25:42;;;;;;;4.18;3.78;;;15.10;99.90;;;;;;5035696;28;20243;-79
2023/03/21 09:28:15;;;;;;;5.57;3.50;;;15.10;99.90;;;;;;5034889;28;20229;-80
2023/03/21 09:30:44;;;;;;;4.28;3.17;;;15.10;99.90;;;;;;5035518;28;20327;-85
2023/03/21 09:33:20;;;;;;;4.07;3.67;;;15.20;99.90;;;;;;5035521;28;20225;-85
2023/03/21 09:35:49;;;;;;;3.42;3.17;;;15.30;99.90;;;;;;5035648;28;20295;-85
2023/03/21 09:38:19;;;;;;;4.23;3.67;;;15.30;99.90;;;;;;5034902;28;20252;-85
2023/03/21 09:40:57;;;;;;;;;;;15.50;99.90;;;;;;5034906;28;20049;-85
2023/03/21 09:43:34;;;;;;;;;;;15.80;99.90;;;;;;5035684;28;19971;-85
2023/03/21 09:46:07;;;;;;;;;;;16.10;99.90;;;;;;5035976;28;19921;-85
2023/03/21 09:48:40;;;;;;;;;;;16.80;99.90;;;;;;5035338;28;19921;-85
2023/03/21 09:51:26;;;;;;;;;;;17.30;99.90;;;;;;5035200;28;19921;-85
2023/03/21 09:53:55;;;;;;;;;;;18.00;99.90;;;;;;5035330;28;19971;-85
2023/03/21 09:56:24;;;;;;;;;;;18.60;99.90;;;;;;5035411;28;19921;-85
2023/03/21 09:58:58;;;;;;;3.67;3.38;;;19.10;99.90;;;;;;5034662;28;20231;-85
2023/03/21 10:01:31;;;;;;;8.13;3.28;;;19.00;99.90;;;;;;5034730;28;20248;-85
2023/03/21 10:04:01;;;;;;;;;;;18.40;99.90;;;;;;5034810;28;20109;-85
2023/03/21 10:06:31;;;;;;;;;;;18.00;99.90;;;;;;5035012;28;20023;-85
2023/03/21 10:09:06;;;;;;;;;;;17.90;99.90;;;;;;5034788;28;19971;-85
2023/03/21 10:11:41;;;;;;;;;;;18.00;99.90;;;;;;5034901;28;19921;-85
2023/03/21 10:14:13;;;;;;;;;;;18.40;99.90;;;;;;5035159;28;19984;-85
2023/03/21 10:16:43;;;;;;;;;;;18.70;99.80;;;;;;5034698;28;20032;-85
2023/03/21 10:19:13;;;;;;;;;;;18.60;99.50;;;;;;5034979;28;19951;-85
2023/03/21 10:21:45;;;;;;;;;;;18.30;99.70;;;;;;5034541;28;19983;-85
2023/03/21 10:24:34;;;;;;;3.15;2.95;;;18.20;99.90;;;;;;5034391;28;19921;-85
2023/03/21 10:27:03;;;;;;;;;;;17.70;99.90;;;;;;5034372;28;20142;-85
2023/03/21 10:29:42;;;;;;;3.40;3.10;;;17.40;99.90;;;;;;5034091;28;19964;-85
2023/03/21 10:32:11;;;;;;;3.15;2.85;;;17.30;99.90;;;;;;5034269;28;20445;-85
2023/03/21 10:34:42;;;;;;;3.58;3.28;;;17.00;99.90;;;;;;5034099;28;20224;-85
2023/03/21 10:37:12;;;;;;;3.38;3.08;;;16.90;99.90;;;;;;5033415;28;20244;-85
2023/03/21 10:39:43;;;;;;;4.45;3.78;;;16.70;99.90;;;;;;5033173;28;20116;-85
2023/03/21 10:42:20;;;;;;;3.83;3.47;;;16.60;99.90;;;;;;5034270;28;20057;-85
2023/03/21 10:44:49;;;;;;;;;;;16.60;99.90;;;;;;5034204;28;20053;-85
2023/03/21 10:47:19;;;;;;;;;;;17.10;99.90;;;;;;5033472;28;19924;-85
2023/03/21 10:49:48;;;;;;;;;;;17.90;99.90;;;;;;5034239;28;19928;-85
2023/03/21 10:52:38;;;;;;;;;;;18.60;99.90;;;;;;5034685;28;19921;-85
2023/03/21 10:55:17;;;;;;;;;;;19.10;99.70;;;;;;5034337;28;19948;-85
2023/03/21 10:57:46;;;;;;;;;;;19.50;98.30;;;;;;5033432;28;19921;-85
2023/03/21 11:00:20;;;;;;;;;;;19.20;97.90;;;;;;5033876;28;19967;-85
2023/03/21 11:02:49;;;;;;;;;;;18.70;98.10;;;;;;5033763;28;19929;-85
2023/03/21 11:05:19;;;;;;;;;;;18.50;98.20;;;;;;5033876;28;19921;-85
2023/03/21 11:07:56;;;;;;;;;;;18.80;97.90;;;;;;5033522;28;19956;-85
2023/03/21 11:10:28;;;;;;;;;;;19.30;97.90;;;;;;5034209;28;19921;-85
2023/03/21 11:12:57;;;;;;;;;;;20.10;96.70;;;;;;5034286;28;19925;-85
2023/03/21 11:15:27;;;;;;;;;;;20.20;96.70;;;;;;5034065;28;19921;-85
2023/03/21 11:17:56;;;;;;;;;;;20.60;95.70;;;;;;5033447;28;19921;-85
2023/03/21 11:20:24;;;;;;;;;;;21.00;95.80;;;;;;5033853;28;19921;-85
2023/03/21 11:22:56;;;;;;;;;;;20.90;95.20;;;;;;5034128;28;19925;-85
2023/03/21 11:25:27;;;;;;;;;;;20.90;94.30;;;;;;5033771;28;19921;-85
2023/03/21 11:27:55;;;;;;;;;;;20.80;94.50;;;;;;5033367;28;19921;-85
2023/03/21 11:30:28;;;;;;;;;;;20.20;94.80;;;;;;5033415;28;19987;-86
2023/03/21 11:32:57;;;;;;;;;;;20.10;95.30;;;;;;5033289;28;19983;-85
2023/03/21 11:35:28;;;;;;;;;;;20.00;95.10;;;;;;5032836;28;19925;-85
2023/03/21 11:37:58;;;;;;;;;;;20.00;95.10;;;;;;5033176;28;19921;-85
2023/03/21 11:40:27;;;;;;;;;;;20.10;95.10;;;;;;5033447;28;19921;-85
2023/03/21 11:42:57;;;;;;;;;;;20.10;95.10;;;;;;5033455;28;19921;-86
2023/03/21 11:45:26;;;;;;;;;;;20.60;95.20;;;;;;5033409;28;20004;-85
2023/03/21 11:47:56;;;;;;;;;;;21.10;94.10;;;;;;5032819;28;19924;-85
2023/03/21 11:50:31;;;;;;;;;;;20.80;93.10;;;;;;5033458;28;20016;-85
2023/03/21 11:53:06;;;;;;;;;;;20.50;93.80;;;;;;5033207;28;19920;-85
2023/03/21 11:55:45;;;;;;;;;;;20.30;93.80;;;;;;5033261;28;19921;-85
2023/03/21 11:58:25;;;;;;;;;;;20.00;93.60;;;;;;5033216;28;19921;-85
2023/03/21 12:00:57;;;;;;;;;;;19.90;94.10;;;;;;5033042;28;19929;-85
2023/03/21 12:03:41;;;;;;;;;;;20.60;93.40;;;;;;5033103;28;19921;-85
2023/03/21 12:06:19;;;;;;;;;;;21.10;92.20;;;;;;5032910;28;19974;-85
2023/03/21 12:08:54;;;;;;;;;;;21.80;91.60;;;;;;5033326;28;19926;-85
2023/03/21 12:11:27;;;;;;;;;;;22.00;90.80;;;;;;5033186;28;19925;-85
2023/03/21 12:14:02;;;;;;;;;;;21.40;91.00;;;;;;5033353;28;19967;-85
2023/03/21 12:16:54;;;;;;;;;;;21.10;91.30;;;;;;5032745;28;19975;-85
2023/03/21 12:19:43;;;;;;;;;;;20.90;91.10;;;;;;5032244;28;19975;-85
2023/03/21 12:22:14;;;;;;;;;;;20.30;91.50;;;;;;5032558;28;19921;-85
2023/03/21 12:24:47;;;;;;;;;;;20.10;91.20;;;;;;5032917;28;19921;-85
2023/03/21 12:27:19;;;;;;;;;;;20.50;91.40;;;;;;5032487;28;19921;-85
2023/03/21 12:29:55;;;;;;;;;;;21.00;90.90;;;;;;5032586;28;19944;-85
2023/03/21 12:32:30;;;;;;;;;;;21.50;89.50;;;;;;5033161;28;19943;-85
2023/03/21 12:35:15;;;;;;;;;;;21.80;89.30;;;;;;5032966;28;19928;-85
2023/03/21 12:37:51;;;;;;;;;;;22.20;88.70;;;;;;5032617;28;19967;-86
2023/03/21 12:40:31;;;;;;;;;;;22.60;87.70;;;;;;5032219;28;19951;-85
2023/03/21 12:43:05;;;;;;;;;;;22.70;86.20;;;;;;5032691;28;19925;-85
2023/03/21 12:45:36;;;;;;;;;;;22.90;84.10;;;;;;5034017;28;19921;-80
2023/03/21 12:48:17;;;;;;;;;;;22.70;84.30;;;;;;5036086;28;19929;-85
2023/03/21 12:50:50;;;;;;;;;;;23.10;82.70;;;;;;5036581;28;19932;-85
2023/03/21 12:53:27;;;;;;;;;;;23.70;80.50;;;;;;5036454;28;19929;-86
2023/03/21 12:56:00;;;;;;;;;;;23.90;79.50;;;;;;5036532;28;19929;-80
2023/03/21 12:58:29;;;;;;;;;;;24.00;76.90;;;;;;5036107;28;19925;-79
2023/03/21 13:01:00;;;;;;;;;;;23.60;77.00;;;;;;5036313;28;19929;-83
2023/03/21 13:03:31;;;;;;;;;;;23.70;76.50;;;;;;5036450;28;20023;-84
2023/03/21 13:06:09;;;;;;;;;;;23.60;75.40;;;;;;5036097;28;19920;-83
2023/03/21 13:08:42;;;;;;;;;;;22.80;76.90;;;;;;5036166;28;19921;-83
2023/03/21 13:11:14;;;;;;;;;;;22.00;78.60;;;;;;5036168;28;19964;-83
2023/03/21 13:13:45;;;;;;;;;;;21.40;80.10;;;;;;5036201;28;19921;-83
2023/03/21 13:16:15;;;;;;;;;;;21.50;79.80;;;;;;5036245;28;19921;-84
2023/03/21 13:18:55;;;;;;;;;;;21.50;80.20;;;;;;5036187;28;19928;-84
2023/03/21 13:21:28;;;;;;;;;;;20.90;79.40;;;;;;5036118;28;19948;-83
2023/03/21 13:24:00;;;;;;;;;;;20.30;81.20;;;;;;5036090;28;19920;-83
2023/03/21 13:26:39;;;;;;;;;;;20.00;82.40;;;;;;5035796;28;19972;-83
2023/03/21 13:29:14;;;;;;;;;;;19.70;83.30;;;;;;5035869;28;19928;-83
2023/03/21 13:31:45;;;;;;;;;;;19.60;84.20;;;;;;5035607;28;19969;-83
2023/03/21 13:34:21;;;;;;;;;;;19.40;85.40;;;;;;5035898;28;20016;-83